Time;durP1;ratioP1;P1;durP2;ratioP2;P2;SDS_P1;SDS_P2;PMS_P1;PMS_P2;Temp;Humidity;BMP_temperature;BMP_pressure;BME280_temperature;BME280_humidity;BME280_pressure;Samples;Min_cycle;Max_cycle;Signal;HPM_P1;HPM_P2
2023/07/16 00:02:03;;;;;;;9.95;3.60;;;17.00;91.40;;;;;;5063702;28;20082;-46
2023/07/16 00:04:31;;;;;;;5.43;2.55;;;17.00;91.40;;;;;;5072250;28;20032;-46
2023/07/16 00:06:56;;;;;;;6.43;2.70;;;17.00;91.20;;;;;;5062035;28;20342;-46
2023/07/16 00:09:23;;;;;;;6.55;2.70;;;17.00;91.10;;;;;;5057614;28;20024;-47
2023/07/16 00:11:51;;;;;;;6.32;2.83;;;17.10;90.90;;;;;;5068671;28;20020;-45
2023/07/16 00:14:17;;;;;;;6.18;2.88;;;17.00;90.40;;;;;;5063386;28;20017;-45
2023/07/16 00:16:43;;;;;;;8.98;2.67;;;17.00;90.40;;;;;;5070721;28;20029;-46
2023/07/16 00:19:10;;;;;;;8.48;3.55;;;16.90;89.80;;;;;;5053463;28;20020;-45
2023/07/16 00:21:38;;;;;;;5.28;2.53;;;17.00;89.50;;;;;;5052300;28;20044;-45
2023/07/16 00:24:04;;;;;;;6.97;2.50;;;16.90;89.00;;;;;;5057075;28;20043;-45
2023/07/16 00:26:31;;;;;;;9.52;2.95;;;16.90;88.80;;;;;;5073157;28;20037;-45
2023/07/16 00:28:57;;;;;;;8.10;2.92;;;16.90;88.70;;;;;;5070072;28;20028;-46
2023/07/16 00:31:24;;;;;;;6.90;2.13;;;16.90;88.50;;;;;;5071632;28;20028;-45
2023/07/16 00:33:53;;;;;;;9.10;2.45;;;16.90;88.50;;;;;;5072149;28;20020;-46
2023/07/16 00:36:22;;;;;;;16.00;3.47;;;16.90;88.50;;;;;;5070891;28;20052;-46
2023/07/16 00:38:50;;;;;;;6.05;2.38;;;16.90;88.80;;;;;;5069866;28;20271;-45
2023/07/16 00:41:17;;;;;;;5.60;2.17;;;16.90;89.00;;;;;;5072902;28;20039;-45
2023/07/16 00:43:45;;;;;;;9.80;3.42;;;16.90;89.00;;;;;;5072510;28;20087;-45
2023/07/16 00:46:16;;;;;;;5.03;2.47;;;16.90;89.10;;;;;;5069640;28;20029;-45
2023/07/16 00:48:46;;;;;;;3.55;2.22;;;16.90;89.40;;;;;;5053091;28;20048;-45
2023/07/16 00:51:14;;;;;;;8.27;2.70;;;16.90;89.40;;;;;;5052193;28;20032;-45
2023/07/16 00:53:43;;;;;;;7.90;3.42;;;17.00;89.70;;;;;;5052774;28;20422;-44
2023/07/16 00:56:11;;;;;;;4.93;2.20;;;16.90;89.70;;;;;;5053145;28;20108;-46
2023/07/16 00:58:36;;;;;;;6.22;3.45;;;16.90;89.90;;;;;;5072473;28;20040;-45
2023/07/16 01:01:03;;;;;;;6.00;2.63;;;16.90;89.90;;;;;;5053471;28;20025;-45
2023/07/16 01:03:30;;;;;;;11.35;2.72;;;17.00;89.80;;;;;;5072036;28;20032;-45
2023/07/16 01:06:23;;;;;;;6.22;2.70;;;17.00;90.00;;;;;;5052000;28;20373;-44
2023/07/16 01:09:10;;;;;;;6.80;2.97;;;17.00;89.80;;;;;;5054365;28;20494;-44
2023/07/16 01:11:39;;;;;;;7.38;2.65;;;16.90;89.70;;;;;;5057318;28;20122;-45
2023/07/16 01:14:10;;;;;;;5.82;3.30;;;16.90;89.80;;;;;;5052786;28;20347;-44
2023/07/16 01:16:39;;;;;;;13.82;4.13;;;16.90;89.90;;;;;;5069435;28;20037;-44
2023/07/16 01:19:05;;;;;;;5.85;3.28;;;16.90;89.80;;;;;;5054329;28;20028;-46
2023/07/16 01:22:21;;;;;;;9.27;2.78;;;16.80;89.80;;;;;;5072625;28;20033;-44
2023/07/16 01:25:16;;;;;;;4.72;2.80;;;16.80;90.00;;;;;;5009156;28;20086;-43
2023/07/16 01:28:43;;;;;;;6.10;2.78;;;16.80;89.90;;;;;;5052202;28;20426;-44
2023/07/16 01:31:11;;;;;;;7.38;3.53;;;16.60;89.90;;;;;;5037910;28;20040;-43
2023/07/16 01:33:40;;;;;;;8.38;3.25;;;16.60;89.70;;;;;;5076213;28;20028;-44
2023/07/16 01:36:08;;;;;;;7.65;3.00;;;16.50;89.40;;;;;;5070178;28;20059;-44
2023/07/16 01:38:36;;;;;;;6.13;3.30;;;16.50;89.20;;;;;;5056876;28;20029;-44
2023/07/16 01:41:03;;;;;;;9.35;3.30;;;16.40;88.80;;;;;;5069848;28;20064;-44
2023/07/16 01:43:33;;;;;;;9.95;3.20;;;16.40;88.60;;;;;;5074496;28;20043;-43
2023/07/16 01:46:00;;;;;;;6.97;3.78;;;16.40;88.40;;;;;;5072597;28;20038;-43
2023/07/16 01:48:33;;;;;;;8.40;3.42;;;16.40;87.90;;;;;;5076289;28;20103;-44
2023/07/16 01:51:00;;;;;;;11.48;4.03;;;16.30;87.90;;;;;;5074801;28;20032;-44
2023/07/16 01:53:27;;;;;;;10.00;3.40;;;16.30;87.80;;;;;;5058533;28;20074;-47
2023/07/16 01:55:54;;;;;;;8.00;3.35;;;16.30;87.90;;;;;;5065184;28;20032;-44
2023/07/16 01:58:19;;;;;;;6.97;3.25;;;16.30;87.90;;;;;;5072872;28;20393;-44
2023/07/16 02:00:49;;;;;;;8.50;3.20;;;16.20;87.60;;;;;;5075144;28;20136;-44
2023/07/16 02:03:15;;;;;;;10.13;3.80;;;16.20;87.50;;;;;;5063093;28;20064;-43
2023/07/16 02:05:42;;;;;;;7.32;3.38;;;16.20;87.80;;;;;;5055034;28;20051;-43
2023/07/16 02:08:09;;;;;;;9.70;4.05;;;16.20;88.10;;;;;;5056163;28;20036;-43
2023/07/16 02:10:36;;;;;;;9.45;3.08;;;16.10;87.90;;;;;;5064513;28;20032;-45
2023/07/16 02:13:03;;;;;;;9.43;3.90;;;16.10;88.20;;;;;;5055728;28;20354;-44
2023/07/16 02:15:30;;;;;;;6.40;3.40;;;16.10;88.30;;;;;;5065505;28;20590;-44
2023/07/16 02:17:57;;;;;;;15.05;4.75;;;16.10;88.30;;;;;;5070421;28;20036;-44
2023/07/16 02:20:26;;;;;;;7.18;3.25;;;16.10;88.30;;;;;;5055437;28;20059;-43
2023/07/16 02:22:55;;;;;;;6.95;3.47;;;16.20;88.30;;;;;;5055235;28;20033;-43
2023/07/16 02:25:22;;;;;;;9.30;3.25;;;16.10;87.90;;;;;;5055336;28;20557;-44
2023/07/16 02:27:49;;;;;;;12.48;3.67;;;16.10;88.30;;;;;;5053187;28;20033;-44
2023/07/16 02:30:15;;;;;;;10.15;3.63;;;16.00;88.00;;;;;;5061625;28;20029;-44
2023/07/16 02:32:41;;;;;;;9.93;4.32;;;16.00;87.80;;;;;;5075206;28;20036;-44
2023/07/16 02:35:08;;;;;;;13.63;3.58;;;15.90;87.80;;;;;;5055041;28;20366;-44
2023/07/16 02:37:35;;;;;;;10.50;4.00;;;16.00;88.10;;;;;;5074440;28;20350;-43
2023/07/16 02:40:02;;;;;;;9.45;3.53;;;15.90;87.70;;;;;;5055567;28;20342;-44
2023/07/16 02:42:32;;;;;;;22.92;3.97;;;15.90;87.90;;;;;;5054544;28;20096;-44
2023/07/16 02:44:59;;;;;;;;;;;15.90;88.20;;;;;;5056368;28;20066;-44
2023/07/16 02:47:25;;;;;;;9.82;3.80;;;15.80;88.20;;;;;;5069025;28;19909;-46
2023/07/16 02:49:52;;;;;;;6.60;3.20;;;15.80;88.60;;;;;;5054381;28;20032;-44
2023/07/16 02:52:19;;;;;;;6.18;2.67;;;15.70;88.80;;;;;;5055135;28;20036;-44
2023/07/16 02:54:46;;;;;;;11.13;4.05;;;15.80;88.90;;;;;;5054993;28;20106;-44
2023/07/16 02:57:13;;;;;;;8.80;3.80;;;15.70;88.60;;;;;;5059372;28;20021;-44
2023/07/16 02:59:40;;;;;;;6.55;3.20;;;15.60;89.00;;;;;;5075239;28;20032;-45
2023/07/16 03:02:07;;;;;;;11.63;3.70;;;15.60;89.00;;;;;;5073530;28;20052;-44
2023/07/16 03:04:34;;;;;;;9.98;4.03;;;15.70;89.20;;;;;;5069367;28;20031;-44
2023/07/16 03:07:01;;;;;;;9.75;4.40;;;15.70;89.40;;;;;;5075010;28;20032;-44
2023/07/16 03:09:29;;;;;;;9.30;3.58;;;15.70;89.60;;;;;;5056669;28;20123;-43
2023/07/16 03:11:55;;;;;;;7.95;3.63;;;15.70;89.90;;;;;;5074763;28;20043;-45
2023/07/16 03:14:22;;;;;;;9.70;4.93;;;15.70;90.00;;;;;;5072778;28;20031;-43
2023/07/16 03:16:48;;;;;;;8.95;3.83;;;15.70;90.30;;;;;;5068103;28;20404;-44
2023/07/16 03:19:14;;;;;;;11.77;4.05;;;15.70;90.40;;;;;;5056971;28;20016;-44
2023/07/16 03:21:43;;;;;;;9.63;4.65;;;15.80;90.70;;;;;;5056966;28;20345;-43
2023/07/16 03:24:11;;;;;;;11.07;4.45;;;15.80;90.70;;;;;;5065747;28;20056;-42
2023/07/16 03:26:38;;;;;;;11.52;4.55;;;15.80;90.70;;;;;;5070624;28;20064;-43
2023/07/16 03:29:06;;;;;;;10.80;4.50;;;15.90;90.50;;;;;;5056960;28;20033;-43
2023/07/16 03:31:32;;;;;;;7.32;3.20;;;15.90;90.60;;;;;;5070564;28;20037;-44
2023/07/16 03:33:59;;;;;;;13.82;4.35;;;15.90;90.40;;;;;;5043578;28;20086;-44
2023/07/16 03:36:27;;;;;;;8.57;3.53;;;15.90;90.20;;;;;;5072563;28;20100;-43
2023/07/16 03:38:54;;;;;;;9.32;3.95;;;15.90;90.00;;;;;;5064592;28;20020;-43
2023/07/16 03:41:20;;;;;;;9.52;4.15;;;15.90;90.10;;;;;;5073833;28;20047;-44
2023/07/16 03:43:45;;;;;;;7.13;3.75;;;15.90;89.60;;;;;;5062818;28;20358;-43
2023/07/16 03:46:12;;;;;;;6.78;4.40;;;15.90;89.00;;;;;;5073109;28;20037;-43
2023/07/16 03:48:38;;;;;;;9.77;4.65;;;15.90;88.70;;;;;;5064062;28;20028;-43
2023/07/16 03:51:05;;;;;;;9.90;4.40;;;15.90;88.50;;;;;;5073586;28;20020;-43
2023/07/16 03:53:32;;;;;;;14.63;5.10;;;15.90;87.90;;;;;;5063415;28;20040;-43
2023/07/16 03:55:59;;;;;;;12.00;5.20;;;15.90;87.00;;;;;;5074431;28;20026;-43
2023/07/16 03:58:29;;;;;;;12.27;5.45;;;15.90;86.40;;;;;;5068649;28;20094;-43
2023/07/16 04:00:56;;;;;;;14.13;5.30;;;16.00;86.00;;;;;;5068771;28;20090;-43
2023/07/16 04:03:22;;;;;;;12.40;5.80;;;15.90;85.60;;;;;;5054328;28;20040;-43
2023/07/16 04:05:49;;;;;;;9.52;4.95;;;16.00;85.90;;;;;;5055578;28;20043;-44
2023/07/16 04:08:16;;;;;;;7.00;4.18;;;16.00;85.50;;;;;;5070296;28;20749;-42
2023/07/16 04:10:42;;;;;;;11.93;4.75;;;16.10;85.30;;;;;;5071286;28;20036;-43
2023/07/16 04:13:09;;;;;;;10.23;4.25;;;16.00;85.20;;;;;;5070480;28;20409;-43
2023/07/16 04:15:36;;;;;;;13.38;4.30;;;16.10;85.50;;;;;;5071344;28;20350;-44
2023/07/16 04:18:04;;;;;;;10.45;3.92;;;16.10;85.60;;;;;;5061112;28;20033;-42
2023/07/16 04:20:30;;;;;;;7.78;4.45;;;16.10;85.30;;;;;;5067718;28;20546;-43
2023/07/16 04:22:57;;;;;;;9.00;4.30;;;16.10;85.20;;;;;;5073423;28;20032;-44
2023/07/16 04:25:24;;;;;;;12.27;4.88;;;16.10;85.40;;;;;;5072171;28;20024;-43
2023/07/16 04:27:51;;;;;;;10.98;4.18;;;16.20;85.70;;;;;;5067187;28;20025;-43
2023/07/16 04:30:18;;;;;;;11.35;5.95;;;16.10;85.80;;;;;;5060103;28;20047;-42
2023/07/16 04:32:45;;;;;;;10.60;4.30;;;16.10;85.80;;;;;;5072567;28;20028;-44
2023/07/16 04:35:11;;;;;;;11.07;4.63;;;16.20;86.20;;;;;;5072921;28;20019;-42
2023/07/16 04:37:38;;;;;;;8.63;3.67;;;16.20;86.30;;;;;;5066488;28;20353;-43
2023/07/16 04:40:06;;;;;;;12.63;4.68;;;16.20;86.30;;;;;;5072881;28;20053;-42
2023/07/16 04:42:32;;;;;;;11.18;4.10;;;16.30;86.60;;;;;;5073047;28;20472;-43
2023/07/16 04:44:58;;;;;;;9.70;5.10;;;16.30;86.20;;;;;;5059237;28;20029;-43
2023/07/16 04:47:24;;;;;;;9.82;4.72;;;16.40;85.70;;;;;;5071104;28;20035;-43
2023/07/16 04:49:55;;;;;;;9.73;4.22;;;16.50;85.30;;;;;;5055337;28;20423;-43
2023/07/16 04:52:22;;;;;;;10.82;4.47;;;16.50;84.90;;;;;;5070933;28;20056;-42
2023/07/16 04:54:50;;;;;;;9.50;4.82;;;16.50;84.70;;;;;;5072913;28;20025;-43
2023/07/16 04:57:17;;;;;;;9.50;4.93;;;16.60;84.90;;;;;;5072206;28;20082;-42
2023/07/16 04:59:50;;;;;;;16.55;5.20;;;16.60;84.50;;;;;;5071968;28;20028;-43
2023/07/16 05:02:17;;;;;;;10.48;5.20;;;16.60;84.30;;;;;;5047671;28;20024;-42
2023/07/16 05:04:44;;;;;;;10.48;5.07;;;16.60;83.90;;;;;;5071701;28;20433;-43
2023/07/16 05:07:10;;;;;;;11.88;5.13;;;16.70;83.80;;;;;;5071734;28;20039;-42
2023/07/16 05:09:36;;;;;;;6.80;4.30;;;16.70;83.50;;;;;;5072310;28;20032;-43
2023/07/16 05:12:04;;;;;;;9.63;5.20;;;16.70;83.80;;;;;;5072168;28;20372;-43
2023/07/16 05:14:29;;;;;;;12.95;5.57;;;16.70;83.70;;;;;;5071142;28;20059;-42
2023/07/16 05:16:56;;;;;;;9.90;4.95;;;16.80;83.60;;;;;;5071088;28;20461;-44
2023/07/16 05:19:22;;;;;;;10.30;4.80;;;16.80;83.30;;;;;;5067824;28;20363;-43
2023/07/16 05:21:52;;;;;;;9.65;5.35;;;16.80;83.60;;;;;;5072041;28;20528;-43
2023/07/16 05:24:19;;;;;;;11.23;4.40;;;16.90;83.20;;;;;;5072799;28;20024;-43
2023/07/16 05:26:47;;;;;;;11.32;4.88;;;16.90;83.10;;;;;;5067430;28;20032;-43
2023/07/16 05:29:14;;;;;;;10.95;4.78;;;16.90;82.70;;;;;;5062549;28;20029;-44
2023/07/16 05:31:39;;;;;;;13.02;5.10;;;16.90;83.00;;;;;;5069464;28;20033;-45
2023/07/16 05:34:07;;;;;;;7.78;4.85;;;16.90;82.30;;;;;;5059212;28;20100;-46
2023/07/16 05:36:34;;;;;;;7.50;5.05;;;17.00;82.80;;;;;;5051111;28;20024;-44
2023/07/16 05:39:00;;;;;;;14.75;6.30;;;17.10;82.70;;;;;;5066735;28;20104;-47
2023/07/16 05:41:27;;;;;;;9.05;5.22;;;17.10;81.50;;;;;;5069065;28;20032;-47
2023/07/16 05:43:56;;;;;;;15.32;6.43;;;17.20;81.40;;;;;;5065357;28;20629;-44
2023/07/16 05:46:27;;;;;;;11.03;6.20;;;17.30;81.60;;;;;;5068590;28;20425;-44
2023/07/16 05:48:56;;;;;;;9.57;5.32;;;17.30;81.10;;;;;;5067406;28;20036;-44
2023/07/16 05:51:22;;;;;;;14.95;6.20;;;17.30;80.90;;;;;;5071916;28;20024;-45
2023/07/16 05:53:49;;;;;;;20.10;5.28;;;17.40;80.70;;;;;;5070439;28;20091;-43
2023/07/16 05:56:16;;;;;;;12.32;5.97;;;17.40;79.90;;;;;;5067131;28;20024;-47
2023/07/16 05:58:43;;;;;;;12.68;5.93;;;17.50;80.20;;;;;;5070548;28;20334;-44
2023/07/16 06:01:09;;;;;;;11.30;5.30;;;17.50;79.90;;;;;;5070484;28;20028;-46
2023/07/16 06:03:34;;;;;;;15.80;6.40;;;17.70;79.10;;;;;;5072088;28;20093;-45
2023/07/16 06:06:01;;;;;;;11.95;5.03;;;17.70;78.20;;;;;;5069164;28;20060;-44
2023/07/16 06:08:27;;;;;;;11.90;6.38;;;17.80;78.00;;;;;;5062390;28;20020;-47
2023/07/16 06:10:52;;;;;;;13.32;5.82;;;17.90;77.70;;;;;;5070889;28;20439;-47
2023/07/16 06:13:19;;;;;;;11.60;5.10;;;17.90;78.00;;;;;;5068872;28;20020;-45
2023/07/16 06:15:50;;;;;;;12.45;5.50;;;18.10;77.20;;;;;;5068584;28;20025;-47
2023/07/16 06:18:15;;;;;;;12.50;4.88;;;18.20;77.20;;;;;;5071894;28;20051;-46
2023/07/16 06:20:48;;;;;;;8.00;5.00;;;18.30;77.00;;;;;;5075871;28;20056;-45
2023/07/16 06:23:16;;;;;;;12.73;5.47;;;18.40;76.40;;;;;;5071647;28;20044;-47
2023/07/16 06:25:44;;;;;;;10.95;5.45;;;18.40;76.20;;;;;;5067152;28;20629;-46
2023/07/16 06:28:11;;;;;;;12.60;6.03;;;18.50;75.70;;;;;;5072691;28;20067;-46
2023/07/16 06:30:41;;;;;;;10.52;4.88;;;18.50;75.50;;;;;;5068310;28;20036;-45
2023/07/16 06:33:08;;;;;;;9.45;4.78;;;18.60;76.00;;;;;;5074149;28;20031;-46
2023/07/16 06:35:35;;;;;;;13.02;5.60;;;18.70;75.60;;;;;;5066267;28;20040;-46
2023/07/16 06:38:02;;;;;;;8.38;3.95;;;18.80;75.50;;;;;;5060451;28;20021;-46
2023/07/16 06:40:28;;;;;;;6.35;4.00;;;18.80;75.00;;;;;;5057718;28;20351;-47
2023/07/16 06:42:57;;;;;;;10.27;5.68;;;18.80;74.90;;;;;;5061163;28;20499;-46
2023/07/16 06:45:25;;;;;;;11.60;4.85;;;18.90;76.10;;;;;;5070313;28;20151;-46
2023/07/16 06:47:53;;;;;;;10.40;5.45;;;18.90;75.40;;;;;;5071858;28;20024;-48
2023/07/16 06:50:18;;;;;;;8.93;3.72;;;18.90;75.90;;;;;;5071886;28;20028;-49
2023/07/16 06:52:45;;;;;;;8.32;3.88;;;19.00;75.10;;;;;;5073761;28;20147;-49
2023/07/16 06:55:11;;;;;;;12.18;4.72;;;19.00;75.60;;;;;;5072120;28;20098;-46
2023/07/16 06:57:36;;;;;;;12.95;4.30;;;19.10;75.60;;;;;;5070235;28;20059;-46
2023/07/16 07:00:04;;;;;;;9.70;4.22;;;19.00;74.60;;;;;;5071731;28;20473;-46
2023/07/16 07:02:31;;;;;;;13.38;4.43;;;19.10;75.00;;;;;;5069701;28;20060;-49
2023/07/16 07:05:00;;;;;;;14.05;5.25;;;19.10;74.70;;;;;;5062196;28;20032;-46
2023/07/16 07:07:27;;;;;;;10.40;4.57;;;19.10;74.50;;;;;;5071510;28;20028;-48
2023/07/16 07:09:55;;;;;;;10.73;4.63;;;19.20;75.20;;;;;;5072002;28;20177;-46
2023/07/16 07:12:22;;;;;;;8.93;4.18;;;19.30;76.30;;;;;;5072900;28;20048;-47
2023/07/16 07:14:48;;;;;;;16.58;4.78;;;19.40;74.80;;;;;;5072155;28;20028;-49
2023/07/16 07:17:14;;;;;;;14.45;5.10;;;19.50;75.30;;;;;;5069147;28;20043;-49
2023/07/16 07:19:43;;;;;;;11.30;4.25;;;19.60;74.20;;;;;;5054299;28;20049;-47
2023/07/16 07:22:10;;;;;;;9.70;4.35;;;19.70;74.20;;;;;;5053882;28;20025;-46
2023/07/16 07:24:36;;;;;;;9.38;4.00;;;19.80;73.40;;;;;;5067079;28;20112;-51
2023/07/16 07:27:07;;;;;;;6.70;3.78;;;19.90;73.60;;;;;;5072272;28;20032;-49
2023/07/16 07:29:35;;;;;;;7.50;3.80;;;19.90;72.40;;;;;;5070631;28;20028;-49
2023/07/16 07:32:01;;;;;;;8.63;4.13;;;20.10;71.70;;;;;;5061719;28;20044;-46
2023/07/16 07:34:28;;;;;;;9.52;3.45;;;20.30;72.50;;;;;;5072649;28;20039;-46
2023/07/16 07:36:55;;;;;;;6.25;3.10;;;20.70;71.20;;;;;;5071933;28;20116;-47
2023/07/16 07:39:22;;;;;;;8.02;3.83;;;21.00;69.90;;;;;;5073700;28;20027;-47
2023/07/16 07:41:52;;;;;;;10.20;4.00;;;21.20;69.00;;;;;;5071899;28;20028;-47
2023/07/16 07:44:19;;;;;;;11.77;3.67;;;21.30;67.70;;;;;;5071034;28;20517;-47
2023/07/16 07:46:45;;;;;;;9.82;3.50;;;21.40;67.50;;;;;;5054708;28;20125;-48
2023/07/16 07:49:15;;;;;;;9.38;3.22;;;21.50;67.10;;;;;;5065897;28;20394;-49
2023/07/16 07:51:49;;;;;;;10.45;3.38;;;21.50;68.00;;;;;;5072574;28;20032;-50
2023/07/16 07:54:16;;;;;;;10.98;3.30;;;21.20;67.40;;;;;;5073667;28;20146;-47
2023/07/16 07:56:46;;;;;;;9.43;3.63;;;21.00;67.90;;;;;;5066935;28;20090;-47
2023/07/16 07:59:13;;;;;;;7.82;3.63;;;21.00;68.30;;;;;;5065270;28;20107;-48
2023/07/16 08:01:39;;;;;;;9.15;3.90;;;21.10;67.10;;;;;;5065303;28;20353;-48
2023/07/16 08:04:04;;;;;;;9.18;3.30;;;20.90;66.40;;;;;;5070051;28;20036;-48
2023/07/16 08:06:32;;;;;;;13.60;4.28;;;20.80;67.30;;;;;;5066258;28;20032;-48
2023/07/16 08:09:01;;;;;;;11.50;4.68;;;20.80;67.70;;;;;;5055829;28;20025;-47
2023/07/16 08:11:27;;;;;;;13.15;4.22;;;20.90;68.20;;;;;;5069879;28;20039;-48
2023/07/16 08:13:54;;;;;;;10.10;4.13;;;20.90;67.60;;;;;;5072070;28;20101;-49
2023/07/16 08:16:23;;;;;;;9.65;3.38;;;21.10;66.60;;;;;;5068571;28;20024;-48
2023/07/16 08:18:50;;;;;;;7.82;4.15;;;21.10;66.70;;;;;;5070794;28;20078;-49
2023/07/16 08:21:19;;;;;;;7.75;3.85;;;21.20;67.60;;;;;;5072815;28;20056;-50
2023/07/16 08:23:49;;;;;;;7.80;3.70;;;21.70;66.90;;;;;;5071035;28;20053;-48
2023/07/16 08:26:16;;;;;;;10.02;4.47;;;22.00;65.70;;;;;;5058265;28;20024;-50
2023/07/16 08:28:43;;;;;;;9.05;4.18;;;21.70;64.20;;;;;;5071298;28;20452;-48
2023/07/16 08:31:15;;;;;;;6.72;4.15;;;21.90;65.00;;;;;;5068739;28;20054;-47
2023/07/16 08:33:42;;;;;;;10.60;4.55;;;22.10;64.20;;;;;;5070560;28;20086;-50
2023/07/16 08:36:10;;;;;;;12.98;4.72;;;22.10;62.90;;;;;;5051925;28;20017;-48
2023/07/16 08:38:39;;;;;;;7.88;4.65;;;22.20;63.40;;;;;;5065608;28;20036;-47
2023/07/16 08:41:06;;;;;;;10.88;4.75;;;22.50;63.40;;;;;;5068325;28;20454;-48
2023/07/16 08:43:33;;;;;;;10.90;4.35;;;22.70;63.40;;;;;;5068213;28;20040;-48
2023/07/16 08:46:01;;;;;;;11.48;4.47;;;22.90;63.30;;;;;;5068843;28;20107;-48
2023/07/16 08:48:28;;;;;;;9.25;4.13;;;22.50;62.90;;;;;;5070301;28;20032;-49
2023/07/16 08:50:58;;;;;;;7.22;3.72;;;22.40;62.90;;;;;;5065859;28;20037;-54
2023/07/16 08:53:25;;;;;;;;;;;22.40;64.30;;;;;;5052868;28;20024;-49
2023/07/16 08:55:52;;;;;;;7.63;4.68;;;22.60;62.90;;;;;;5070779;28;20007;-49
2023/07/16 08:58:22;;;;;;;6.90;3.97;;;22.90;62.00;;;;;;5070592;28;20052;-49
2023/07/16 09:00:49;;;;;;;9.15;4.00;;;23.30;60.70;;;;;;5067178;28;20035;-50
2023/07/16 09:03:16;;;;;;;8.05;4.22;;;23.40;60.60;;;;;;5071617;28;20043;-48
2023/07/16 09:05:46;;;;;;;8.32;3.65;;;23.30;60.40;;;;;;5068008;28;20124;-48
2023/07/16 09:08:13;;;;;;;;;;;22.90;59.50;;;;;;5066643;28;20470;-49
2023/07/16 09:10:40;;;;;;;10.95;4.32;;;22.70;60.70;;;;;;5068501;28;19951;-48
2023/07/16 09:13:07;;;;;;;9.18;4.13;;;22.80;61.50;;;;;;5069975;28;20027;-52
2023/07/16 09:15:34;;;;;;;10.30;4.43;;;22.40;61.00;;;;;;5068180;28;20025;-48
2023/07/16 09:18:02;;;;;;;6.45;3.83;;;22.20;63.00;;;;;;5052304;28;20032;-48
2023/07/16 09:20:30;;;;;;;11.05;4.20;;;22.00;63.70;;;;;;5069982;28;20124;-49
2023/07/16 09:22:59;;;;;;;7.85;4.32;;;21.90;63.20;;;;;;5070145;28;20048;-49
2023/07/16 09:25:34;;;;;;;8.82;4.30;;;21.90;62.30;;;;;;5063128;28;20112;-48
2023/07/16 09:28:04;;;;;;;8.20;3.75;;;22.40;63.70;;;;;;5065822;28;20035;-47
2023/07/16 09:30:34;;;;;;;6.88;3.83;;;22.40;62.20;;;;;;5069747;28;20112;-48
2023/07/16 09:33:12;;;;;;;7.95;4.15;;;22.50;62.70;;;;;;5070276;28;20063;-50
2023/07/16 09:35:39;;;;;;;9.55;4.55;;;22.40;62.40;;;;;;5066762;28;20025;-49
2023/07/16 09:38:09;;;;;;;10.98;3.88;;;22.70;62.10;;;;;;5068813;28;20025;-48
2023/07/16 09:40:42;;;;;;;6.47;3.88;;;23.10;60.50;;;;;;5063005;28;20121;-49
2023/07/16 09:43:13;;;;;;;6.80;3.78;;;22.70;60.90;;;;;;5066699;28;20032;-50
2023/07/16 09:45:42;;;;;;;7.07;4.20;;;22.40;60.70;;;;;;5068773;28;20474;-50
2023/07/16 09:48:09;;;;;;;7.22;3.88;;;22.20;60.80;;;;;;5071661;28;20057;-53
2023/07/16 09:50:35;;;;;;;7.70;3.97;;;22.20;63.00;;;;;;5053211;28;20033;-48
2023/07/16 09:53:07;;;;;;;7.55;4.03;;;22.10;61.70;;;;;;5055654;28;20086;-48
2023/07/16 09:55:38;;;;;;;7.07;4.22;;;21.80;60.80;;;;;;5063034;28;20029;-49
2023/07/16 09:58:14;;;;;;;4.97;3.00;;;21.40;61.20;;;;;;5072253;28;20414;-50
2023/07/16 10:00:42;;;;;;;10.45;5.18;;;21.00;63.40;;;;;;5072851;28;20029;-48
2023/07/16 10:03:11;;;;;;;7.75;4.03;;;20.90;64.70;;;;;;5071845;28;20029;-49
2023/07/16 10:05:37;;;;;;;9.05;4.38;;;20.90;66.30;;;;;;5055827;28;20032;-48
2023/07/16 10:08:15;;;;;;;8.73;4.70;;;20.80;65.00;;;;;;5058351;28;20056;-50
2023/07/16 10:10:48;;;;;;;7.28;3.80;;;20.70;64.80;;;;;;5067275;28;20040;-51
2023/07/16 10:13:15;;;;;;;11.10;4.60;;;20.70;65.40;;;;;;5054064;28;20033;-49
2023/07/16 10:16:01;;;;;;;10.18;4.25;;;20.60;66.10;;;;;;5072014;28;20028;-48
2023/07/16 10:18:31;;;;;;;8.43;4.50;;;20.50;66.20;;;;;;5059024;28;20126;-47
2023/07/16 10:21:09;;;;;;;9.40;3.70;;;20.70;67.20;;;;;;5074980;28;20055;-48
2023/07/16 10:23:43;;;;;;;8.48;3.70;;;21.30;67.70;;;;;;5072531;28;20389;-49
2023/07/16 10:26:15;;;;;;;9.60;3.88;;;22.00;66.00;;;;;;5074798;28;20046;-47
2023/07/16 10:28:42;;;;;;;8.77;3.83;;;22.60;65.30;;;;;;5055823;28;20053;-49
2023/07/16 10:31:24;;;;;;;8.63;4.15;;;23.20;63.60;;;;;;5065798;28;20040;-49
2023/07/16 10:34:04;;;;;;;8.18;4.70;;;23.30;59.60;;;;;;5054661;28;20110;-49
2023/07/16 10:36:36;;;;;;;;;;;23.10;60.90;;;;;;5055093;28;20032;-49
2023/07/16 10:39:04;;;;;;;8.48;4.63;;;22.70;62.40;;;;;;5070205;28;19923;-50
2023/07/16 10:41:35;;;;;;;7.18;4.18;;;22.30;61.70;;;;;;5073954;28;20316;-54
2023/07/16 10:44:03;;;;;;;8.48;4.22;;;21.80;63.50;;;;;;5062128;28;20025;-48
2023/07/16 10:46:33;;;;;;;8.77;4.45;;;21.50;63.50;;;;;;5065862;28;20059;-48
2023/07/16 10:49:03;;;;;;;13.88;4.70;;;21.40;64.80;;;;;;5056355;28;20370;-49
2023/07/16 10:51:30;;;;;;;9.07;4.82;;;21.40;65.00;;;;;;5073602;28;20020;-48
2023/07/16 10:53:57;;;;;;;10.27;4.40;;;21.80;66.20;;;;;;5054817;28;20032;-52
2023/07/16 10:56:27;;;;;;;8.57;4.18;;;21.90;63.30;;;;;;5073018;28;20025;-48
2023/07/16 10:58:54;;;;;;;10.52;4.90;;;21.80;63.40;;;;;;5074268;28;20082;-47
2023/07/16 11:01:21;;;;;;;7.57;4.75;;;21.60;64.80;;;;;;5067991;28;20039;-49
2023/07/16 11:03:48;;;;;;;7.05;4.35;;;21.40;65.00;;;;;;5073909;28;20033;-49
2023/07/16 11:06:15;;;;;;;8.25;4.63;;;21.30;65.80;;;;;;5071592;28;20473;-48
2023/07/16 11:08:42;;;;;;;8.05;4.68;;;21.10;65.60;;;;;;5073384;28;20028;-51
2023/07/16 11:11:08;;;;;;;12.60;4.97;;;21.10;66.50;;;;;;5059211;28;20029;-48
2023/07/16 11:13:34;;;;;;;7.13;4.32;;;21.20;66.70;;;;;;5053875;28;20017;-49
2023/07/16 11:16:09;;;;;;;8.10;4.15;;;21.40;64.80;;;;;;5060686;28;20054;-49
2023/07/16 11:18:37;;;;;;;9.23;5.35;;;21.20;64.80;;;;;;5073019;28;20029;-51
2023/07/16 11:21:04;;;;;;;7.72;4.97;;;21.00;64.30;;;;;;5063127;28;20049;-49
2023/07/16 11:23:37;;;;;;;9.57;5.10;;;20.90;65.50;;;;;;5068540;28;20037;-49
2023/07/16 11:26:04;;;;;;;7.80;5.20;;;21.00;65.80;;;;;;5055374;28;20174;-48
2023/07/16 11:28:44;;;;;;;10.10;4.95;;;21.20;66.60;;;;;;5071337;28;20036;-48
2023/07/16 11:31:17;;;;;;;7.57;4.95;;;21.20;65.20;;;;;;5052004;28;20124;-54
2023/07/16 11:33:44;;;;;;;8.93;5.38;;;21.50;65.60;;;;;;5058877;28;20131;-50
2023/07/16 11:36:12;;;;;;;8.95;5.35;;;22.00;65.60;;;;;;5069750;28;20081;-52
2023/07/16 11:38:41;;;;;;;7.57;4.70;;;22.20;63.10;;;;;;5071396;28;20029;-48
2023/07/16 11:41:09;;;;;;;;;;;22.10;63.80;;;;;;5057230;28;20055;-50
2023/07/16 11:43:36;;;;;;;7.63;4.40;;;22.20;62.90;;;;;;5063466;28;20362;-48
2023/07/16 11:46:05;;;;;;;7.63;4.93;;;21.60;62.90;;;;;;5070090;28;20021;-48
2023/07/16 11:48:30;;;;;;;8.70;5.22;;;21.50;64.50;;;;;;5068286;28;20020;-48
2023/07/16 11:50:57;;;;;;;10.27;5.18;;;21.80;65.40;;;;;;5069626;28;20475;-52
2023/07/16 11:53:24;;;;;;;7.43;4.72;;;21.90;64.10;;;;;;5070475;28;20373;-49
2023/07/16 11:55:51;;;;;;;5.82;4.72;;;22.00;65.40;;;;;;5072954;28;20032;-50
2023/07/16 11:58:18;;;;;;;7.95;4.78;;;22.20;63.20;;;;;;5070601;28;20469;-52
2023/07/16 12:00:45;;;;;;;8.45;4.57;;;22.20;63.20;;;;;;5064398;28;20033;-48
2023/07/16 12:03:12;;;;;;;7.85;4.13;;;22.10;64.00;;;;;;5061456;28;20339;-49
2023/07/16 12:05:38;;;;;;;9.07;4.95;;;22.10;63.80;;;;;;5053751;28;20024;-49
2023/07/16 12:08:05;;;;;;;10.18;5.97;;;22.10;64.40;;;;;;5067323;28;20462;-52
2023/07/16 12:10:35;;;;;;;11.90;4.47;;;22.30;64.70;;;;;;5067986;28;20028;-52
2023/07/16 12:13:04;;;;;;;9.20;5.75;;;22.30;63.90;;;;;;5031821;28;20297;-50
2023/07/16 12:15:32;;;;;;;8.32;5.00;;;22.40;64.00;;;;;;5048287;28;20025;-50
2023/07/16 12:17:58;;;;;;;8.40;4.50;;;22.40;62.60;;;;;;5066376;28;20083;-49
2023/07/16 12:20:26;;;;;;;7.68;4.65;;;22.40;62.90;;;;;;5076487;28;20131;-53
2023/07/16 12:22:53;;;;;;;9.00;5.28;;;22.50;62.10;;;;;;5067205;28;20025;-49
2023/07/16 12:25:21;;;;;;;9.55;4.20;;;22.40;61.80;;;;;;5063469;28;20020;-50
2023/07/16 12:27:48;;;;;;;7.93;3.97;;;22.60;62.40;;;;;;5064550;28;20029;-49
2023/07/16 12:30:14;;;;;;;7.35;4.32;;;22.70;61.90;;;;;;5062901;28;20043;-48
2023/07/16 12:32:43;;;;;;;11.18;5.07;;;22.70;61.40;;;;;;5053474;28;20024;-48
2023/07/16 12:35:14;;;;;;;14.97;4.40;;;22.60;60.60;;;;;;5070116;28;20028;-51
2023/07/16 12:37:41;;;;;;;7.30;4.68;;;22.60;60.80;;;;;;5064819;28;20028;-49
2023/07/16 12:40:08;;;;;;;6.93;4.78;;;22.40;60.90;;;;;;5051773;28;20021;-49
2023/07/16 12:42:35;;;;;;;8.55;4.85;;;22.40;61.40;;;;;;5070908;28;20482;-48
2023/07/16 12:45:03;;;;;;;7.95;4.20;;;22.50;63.00;;;;;;5071928;28;20020;-51
2023/07/16 12:47:31;;;;;;;7.50;4.30;;;22.80;63.30;;;;;;5068997;28;20365;-48
2023/07/16 12:49:58;;;;;;;7.55;4.43;;;22.90;62.30;;;;;;5071962;28;20054;-50
2023/07/16 12:52:27;;;;;;;8.90;4.35;;;22.80;59.90;;;;;;5070268;28;20036;-51